Wetterdaten: Montag, 13.10.2014
Datum Zeit Temp. A. Feuchte A. Luftdruck Regen Wind Richtung Richtung Sonnenschein ET UV Solar Taupunkt Windchill Windben Empfang
13.10.2014 00:00 13,6 C 83 % 1008,5 hPa 0,0 l/m 0,0 km/h (0 Bft) O-SO 115 0 min 0,000 mm 0,0 UV-I 0 W/m 10,8 C 13,6 C 0,0 km/h (0 Bft) 0,00 %
13.10.2014 00:15 13,5 C 83 % 1008,5 hPa 0,0 l/m 0,0 km/h (0 Bft) SO 133 0 min 0,000 mm 0,0 UV-I 0 W/m 10,7 C 13,5 C 0,0 km/h (0 Bft) 0,00 %
13.10.2014 00:30 13,2 C 84 % 1008,5 hPa 0,0 l/m 0,0 km/h (0 Bft) SO 133 0 min 0,000 mm 0,0 UV-I 0 W/m 10,6 C 13,2 C 0,0 km/h (0 Bft) 0,00 %
13.10.2014 00:45 12,9 C 84 % 1008,7 hPa 0,0 l/m 0,0 km/h (0 Bft) SO 133 0 min 0,000 mm 0,0 UV-I 0 W/m 10,3 C 12,9 C 0,0 km/h (0 Bft) 0,00 %
13.10.2014 01:00 12,6 C 85 % 1008,7 hPa 0,0 l/m 0,0 km/h (0 Bft) SO 133 0 min 0,000 mm 0,0 UV-I 0 W/m 10,1 C 12,6 C 0,0 km/h (0 Bft) 0,00 %
13.10.2014 01:15 12,5 C 85 % 1008,5 hPa 0,0 l/m 0,0 km/h (0 Bft) SO 133 0 min 0,000 mm 0,0 UV-I 0 W/m 10,0 C 12,5 C 0,0 km/h (0 Bft) 0,00 %
13.10.2014 01:30 12,5 C 86 % 1008,6 hPa 0,0 l/m 0,0 km/h (0 Bft) SO 133 0 min 0,000 mm 0,0 UV-I 0 W/m 10,2 C 12,5 C 0,0 km/h (0 Bft) 0,00 %
13.10.2014 01:45 12,3 C 86 % 1008,6 hPa 0,0 l/m 0,0 km/h (0 Bft) SO 133 0 min 0,000 mm 0,0 UV-I 0 W/m 10,0 C 12,3 C 0,0 km/h (0 Bft) 0,00 %
13.10.2014 02:00 12,0 C 85 % 1008,7 hPa 0,0 l/m 0,0 km/h (0 Bft) SO 133 0 min 0,000 mm 0,0 UV-I 0 W/m 9,6 C 12,0 C 0,0 km/h (0 Bft) 0,00 %
13.10.2014 02:15 11,7 C 86 % 1008,9 hPa 0,0 l/m 0,0 km/h (0 Bft) SO 133 0 min 0,000 mm 0,0 UV-I 0 W/m 9,4 C 11,7 C 0,0 km/h (0 Bft) 0,00 %
13.10.2014 02:30 11,4 C 86 % 1009,0 hPa 0,0 l/m 0,0 km/h (0 Bft) SO 133 0 min 0,000 mm 0,0 UV-I 0 W/m 9,1 C 11,4 C 0,0 km/h (0 Bft) 0,00 %
13.10.2014 02:45 11,2 C 86 % 1008,9 hPa 0,0 l/m 0,0 km/h (0 Bft) SO 133 0 min 0,000 mm 0,0 UV-I 0 W/m 8,9 C 11,2 C 0,0 km/h (0 Bft) 0,00 %
13.10.2014 03:00 11,1 C 86 % 1008,8 hPa 0,0 l/m 0,0 km/h (0 Bft) SO 142 0 min 0,000 mm 0,0 UV-I 0 W/m 8,8 C 11,1 C 0,0 km/h (0 Bft) 0,00 %
13.10.2014 03:15 11,0 C 86 % 1008,8 hPa 0,0 l/m 0,0 km/h (0 Bft) SO 142 0 min 0,000 mm 0,0 UV-I 0 W/m 8,7 C 11,0 C 0,0 km/h (0 Bft) 0,00 %
13.10.2014 03:30 10,9 C 86 % 1008,7 hPa 0,0 l/m 0,0 km/h (0 Bft) O 100 0 min 0,000 mm 0,0 UV-I 0 W/m 8,7 C 10,9 C 0,0 km/h (0 Bft) 0,00 %
13.10.2014 03:45 10,7 C 86 % 1008,6 hPa 0,0 l/m 0,0 km/h (0 Bft) O 100 0 min 0,000 mm 0,0 UV-I 0 W/m 8,5 C 10,7 C 0,0 km/h (0 Bft) 0,00 %
13.10.2014 04:00 10,7 C 86 % 1008,6 hPa 0,0 l/m 0,0 km/h (0 Bft) SW 226 0 min 0,000 mm 0,0 UV-I 0 W/m 8,5 C 10,7 C 0,0 km/h (0 Bft) 0,00 %
13.10.2014 04:15 10,8 C 87 % 1008,7 hPa 0,0 l/m 0,0 km/h (0 Bft) W-SW 255 0 min 0,000 mm 0,0 UV-I 0 W/m 8,7 C 10,8 C 0,0 km/h (0 Bft) 0,00 %
13.10.2014 04:30 11,0 C 87 % 1008,2 hPa 0,0 l/m 0,0 km/h (0 Bft) O-SO 106 0 min 0,000 mm 0,0 UV-I 0 W/m 8,9 C 11,0 C 0,0 km/h (0 Bft) 0,00 %
13.10.2014 04:45 11,2 C 87 % 1008,0 hPa 0,0 l/m 0,0 km/h (0 Bft) S-SO 148 0 min 0,000 mm 0,0 UV-I 0 W/m 9,1 C 11,2 C 0,0 km/h (0 Bft) 0,00 %
13.10.2014 05:00 11,3 C 87 % 1008,2 hPa 0,3 l/m 0,0 km/h (0 Bft) S 174 0 min 0,000 mm 0,0 UV-I 0 W/m 9,2 C 11,3 C 0,0 km/h (0 Bft) 0,00 %
13.10.2014 05:15 11,3 C 87 % 1008,4 hPa 0,0 l/m 0,0 km/h (0 Bft) S 183 0 min 0,000 mm 0,0 UV-I 0 W/m 9,2 C 11,3 C 0,0 km/h (0 Bft) 0,00 %
13.10.2014 05:30 11,3 C 87 % 1008,4 hPa 0,0 l/m 0,0 km/h (0 Bft) O 98 0 min 0,000 mm 0,0 UV-I 0 W/m 9,2 C 11,3 C 0,0 km/h (0 Bft) 0,00 %
13.10.2014 05:45 11,2 C 87 % 1008,5 hPa 0,0 l/m 0,0 km/h (0 Bft) O-SO 114 0 min 0,000 mm 0,0 UV-I 0 W/m 9,1 C 11,2 C 0,0 km/h (0 Bft) 0,00 %
13.10.2014 06:00 11,2 C 87 % 1008,5 hPa 0,0 l/m 0,0 km/h (0 Bft) SO 140 0 min 0,000 mm 0,0 UV-I 0 W/m 9,1 C 11,2 C 0,0 km/h (0 Bft) 0,00 %
13.10.2014 06:15 11,5 C 86 % 1008,5 hPa 0,0 l/m 0,0 km/h (0 Bft) SO 128 0 min 0,000 mm 0,0 UV-I 0 W/m 9,2 C 11,5 C 0,0 km/h (0 Bft) 0,00 %
13.10.2014 06:30 11,8 C 86 % 1008,2 hPa 0,0 l/m 0,0 km/h (0 Bft) O 93 0 min 0,000 mm 0,0 UV-I 0 W/m 9,5 C 11,8 C 0,0 km/h (0 Bft) 0,00 %
13.10.2014 06:45 11,9 C 87 % 1008,4 hPa 0,0 l/m 0,0 km/h (0 Bft) S-SO 150 0 min 0,000 mm 0,0 UV-I 0 W/m 9,8 C 11,9 C 0,0 km/h (0 Bft) 0,00 %
13.10.2014 07:00 12,0 C 87 % 1008,4 hPa 0,0 l/m 0,0 km/h (0 Bft) S 173 0 min 0,000 mm 0,0 UV-I 0 W/m 9,9 C 12,0 C 0,0 km/h (0 Bft) 0,00 %
13.10.2014 07:15 12,1 C 87 % 1008,3 hPa 0,0 l/m 0,4 km/h (0 Bft) O-SO 112 0 min 0,000 mm 0,0 UV-I 0 W/m 10,0 C 12,1 C 4,0 km/h (1 Bft) 0,00 %
13.10.2014 07:30 12,2 C 87 % 1008,6 hPa 0,0 l/m 0,0 km/h (0 Bft) O 87 0 min 0,000 mm 0,0 UV-I 0 W/m 10,1 C 12,2 C 0,0 km/h (0 Bft) 0,00 %
13.10.2014 07:45 12,3 C 87 % 1008,5 hPa 0,0 l/m 0,0 km/h (0 Bft) S 175 0 min 0,000 mm 0,0 UV-I 4 W/m 10,2 C 12,3 C 0,0 km/h (0 Bft) 0,00 %
13.10.2014 08:00 12,4 C 86 % 1008,6 hPa 0,0 l/m 0,0 km/h (0 Bft) S-SO 160 0 min 0,000 mm 0,0 UV-I 12 W/m 10,1 C 12,4 C 0,0 km/h (0 Bft) 0,00 %
13.10.2014 08:15 12,5 C 86 % 1008,6 hPa 0,0 l/m 0,0 km/h (0 Bft) SO 134 0 min 0,000 mm 0,0 UV-I 24 W/m 10,2 C 12,5 C 0,0 km/h (0 Bft) 0,00 %
13.10.2014 08:30 12,7 C 87 % 1008,7 hPa 0,0 l/m 0,4 km/h (0 Bft) O-SO 117 0 min 0,000 mm 1,0 UV-I 44 W/m 10,6 C 12,7 C 4,0 km/h (1 Bft) 0,00 %
13.10.2014 08:45 12,9 C 87 % 1008,7 hPa 0,0 l/m 1,8 km/h (1 Bft) O 81 0 min 0,000 mm 1,0 UV-I 64 W/m 10,8 C 12,9 C 4,0 km/h (1 Bft) 0,00 %
13.10.2014 09:00 13,0 C 87 % 1008,6 hPa 0,0 l/m 0,4 km/h (0 Bft) O-SO 109 0 min 0,000 mm 1,0 UV-I 56 W/m 10,9 C 13,0 C 4,0 km/h (1 Bft) 0,00 %
13.10.2014 09:15 13,0 C 87 % 1008,9 hPa 0,0 l/m 0,7 km/h (0 Bft) O 88 0 min 0,000 mm 1,0 UV-I 69 W/m 10,9 C 13,0 C 4,0 km/h (1 Bft) 0,00 %
13.10.2014 09:30 13,0 C 87 % 1008,9 hPa 0,0 l/m 6,8 km/h (2 Bft) O-SO 108 0 min 0,000 mm 1,0 UV-I 75 W/m 10,9 C 12,8 C 7,9 km/h (2 Bft) 0,00 %
13.10.2014 09:45 13,3 C 86 % 1008,7 hPa 0,0 l/m 1,8 km/h (1 Bft) S 174 0 min 0,000 mm 1,0 UV-I 123 W/m 11,0 C 13,3 C 4,0 km/h (1 Bft) 0,00 %
13.10.2014 10:00 13,6 C 85 % 1008,8 hPa 0,0 l/m 0,4 km/h (0 Bft) SO 124 0 min 0,000 mm 1,0 UV-I 106 W/m 11,1 C 13,6 C 4,0 km/h (1 Bft) 0,00 %
13.10.2014 10:15 13,9 C 83 % 1008,4 hPa 0,0 l/m 2,9 km/h (1 Bft) O 92 0 min 0,000 mm 1,0 UV-I 88 W/m 11,1 C 13,9 C 4,0 km/h (1 Bft) 0,00 %
13.10.2014 10:30 14,4 C 80 % 1008,2 hPa 0,0 l/m 1,8 km/h (1 Bft) O 87 0 min 0,000 mm 2,0 UV-I 138 W/m 11,0 C 14,4 C 4,0 km/h (1 Bft) 0,00 %
13.10.2014 10:45 14,8 C 79 % 1008,0 hPa 0,0 l/m 2,2 km/h (1 Bft) O-SO 104 0 min 0,000 mm 2,0 UV-I 190 W/m 11,2 C 14,8 C 4,0 km/h (1 Bft) 0,00 %
13.10.2014 11:00 14,8 C 77 % 1008,3 hPa 0,0 l/m 11,5 km/h (2 Bft) O-SO 117 0 min 0,000 mm 2,0 UV-I 173 W/m 10,8 C 12,2 C 15,8 km/h (3 Bft) 0,00 %
13.10.2014 11:15 15,2 C 77 % 1008,2 hPa 0,0 l/m 0,0 km/h (0 Bft) O-NO 63 0 min 0,000 mm 2,0 UV-I 220 W/m 11,2 C 15,2 C 0,0 km/h (0 Bft) 0,00 %
13.10.2014 11:30 14,7 C 78 % 1008,3 hPa 0,0 l/m 4,3 km/h (1 Bft) S-SO 151 0 min 0,000 mm 2,0 UV-I 114 W/m 10,9 C 14,7 C 7,9 km/h (2 Bft) 0,00 %
13.10.2014 11:45 15,4 C 75 % 1008,4 hPa 0,0 l/m 0,0 km/h (0 Bft) SO 130 0 min 0,000 mm 1,0 UV-I 142 W/m 11,0 C 15,4 C 0,0 km/h (0 Bft) 0,00 %
13.10.2014 12:00 15,4 C 76 % 1008,3 hPa 0,0 l/m 0,4 km/h (0 Bft) O-NO 57 0 min 0,000 mm 2,0 UV-I 114 W/m 11,2 C 15,4 C 4,0 km/h (1 Bft) 0,00 %
13.10.2014 12:15 15,6 C 74 % 1008,0 hPa 0,0 l/m 2,2 km/h (1 Bft) O-SO 109 0 min 0,000 mm 3,0 UV-I 268 W/m 11,0 C 15,6 C 4,0 km/h (1 Bft) 0,00 %
13.10.2014 12:30 16,5 C 70 % 1007,2 hPa 0,0 l/m 2,2 km/h (1 Bft) O-SO 119 15 min 0,000 mm 3,0 UV-I 320 W/m 11,0 C 16,5 C 4,0 km/h (1 Bft) 0,00 %
13.10.2014 12:45 16,5 C 72 % 1007,4 hPa 0,0 l/m 0,7 km/h (0 Bft) NO 40 0 min 0,000 mm 2,0 UV-I 261 W/m 11,4 C 16,5 C 4,0 km/h (1 Bft) 0,00 %
13.10.2014 13:00 16,3 C 73 % 1006,6 hPa 0,0 l/m 0,0 km/h (0 Bft) O-NO 70 0 min 0,000 mm 2,0 UV-I 226 W/m 11,4 C 16,3 C 0,0 km/h (0 Bft) 0,00 %
13.10.2014 13:15 17,1 C 71 % 1006,5 hPa 0,0 l/m 0,4 km/h (0 Bft) W-SW 258 0 min 0,000 mm 3,0 UV-I 273 W/m 11,8 C 17,1 C 4,0 km/h (1 Bft) 0,00 %
13.10.2014 13:30 17,0 C 71 % 1006,2 hPa 0,0 l/m 0,4 km/h (0 Bft) O-SO 112 0 min 0,000 mm 2,0 UV-I 230 W/m 11,7 C 17,0 C 4,0 km/h (1 Bft) 0,00 %
13.10.2014 13:45 17,6 C 68 % 1006,0 hPa 0,0 l/m 0,0 km/h (0 Bft) S 176 0 min 0,000 mm 2,0 UV-I 215 W/m 11,6 C 17,6 C 0,0 km/h (0 Bft) 0,00 %
13.10.2014 14:00 17,5 C 69 % 1006,1 hPa 0,0 l/m 0,0 km/h (0 Bft) W-SW 255 0 min 0,000 mm 2,0 UV-I 187 W/m 11,7 C 17,5 C 0,0 km/h (0 Bft) 0,00 %
13.10.2014 14:15 17,7 C 68 % 1005,7 hPa 0,0 l/m 1,4 km/h (1 Bft) O 101 0 min 0,000 mm 2,0 UV-I 187 W/m 11,7 C 17,7 C 4,0 km/h (1 Bft) 0,00 %
13.10.2014 14:30 18,0 C 71 % 1006,0 hPa 0,0 l/m 0,0 km/h (0 Bft) N 349 0 min 0,000 mm 2,0 UV-I 227 W/m 12,7 C 18,0 C 0,0 km/h (0 Bft) 0,00 %
13.10.2014 14:45 18,3 C 68 % 1006,1 hPa 0,0 l/m 0,0 km/h (0 Bft) N-NW 348 0 min 0,000 mm 2,0 UV-I 231 W/m 12,3 C 18,3 C 0,0 km/h (0 Bft) 0,00 %
13.10.2014 15:00 18,2 C 69 % 1006,0 hPa 0,0 l/m 0,0 km/h (0 Bft) NO 36 0 min 0,000 mm 2,0 UV-I 216 W/m 12,4 C 18,2 C 0,0 km/h (0 Bft) 0,00 %
13.10.2014 15:15 18,1 C 70 % 1005,2 hPa 0,0 l/m 0,4 km/h (0 Bft) W 279 0 min 0,000 mm 2,0 UV-I 194 W/m 12,5 C 18,1 C 4,0 km/h (1 Bft) 0,00 %
13.10.2014 15:30 17,9 C 69 % 1005,5 hPa 0,0 l/m 0,4 km/h (0 Bft) SO 125 0 min 0,000 mm 2,0 UV-I 189 W/m 12,1 C 17,9 C 4,0 km/h (1 Bft) 0,00 %
13.10.2014 15:45 18,3 C 68 % 1005,9 hPa 0,0 l/m 0,0 km/h (0 Bft) SO 133 0 min 0,000 mm 1,0 UV-I 138 W/m 12,3 C 18,3 C 0,0 km/h (0 Bft) 0,00 %
13.10.2014 16:00 18,1 C 69 % 1006,0 hPa 0,0 l/m 0,0 km/h (0 Bft) W-SW 256 0 min 0,000 mm 1,0 UV-I 130 W/m 12,3 C 18,1 C 0,0 km/h (0 Bft) 0,00 %
13.10.2014 16:15 18,2 C 71 % 1006,2 hPa 0,0 l/m 0,0 km/h (0 Bft) S-SW 211 0 min 0,000 mm 1,0 UV-I 119 W/m 12,9 C 18,2 C 0,0 km/h (0 Bft) 0,00 %
13.10.2014 16:30 17,9 C 73 % 1006,1 hPa 0,0 l/m 0,0 km/h (0 Bft) O-SO 111 0 min 0,000 mm 1,0 UV-I 94 W/m 13,0 C 17,9 C 0,0 km/h (0 Bft) 0,00 %
13.10.2014 16:45 17,8 C 71 % 1006,1 hPa 0,0 l/m 0,0 km/h (0 Bft) SO 132 0 min 0,000 mm 1,0 UV-I 89 W/m 12,5 C 17,8 C 0,0 km/h (0 Bft) 0,00 %
13.10.2014 17:00 17,6 C 72 % 1006,1 hPa 0,0 l/m 0,0 km/h (0 Bft) SO 136 0 min 0,000 mm 1,0 UV-I 63 W/m 12,5 C 17,6 C 0,0 km/h (0 Bft) 0,00 %
13.10.2014 17:15 17,1 C 73 % 1005,8 hPa 0,0 l/m 0,0 km/h (0 Bft) O-NO 77 0 min 0,000 mm 0,0 UV-I 44 W/m 12,2 C 17,1 C 0,0 km/h (0 Bft) 0,00 %
13.10.2014 17:30 16,7 C 74 % 1006,1 hPa 0,0 l/m 0,4 km/h (0 Bft) O-SO 105 0 min 0,000 mm 0,0 UV-I 27 W/m 12,0 C 16,7 C 4,0 km/h (1 Bft) 0,00 %
13.10.2014 17:45 16,3 C 77 % 1006,4 hPa 0,0 l/m 0,4 km/h (0 Bft) SO 131 0 min 0,000 mm 0,0 UV-I 7 W/m 12,3 C 16,3 C 4,0 km/h (1 Bft) 0,00 %
13.10.2014 18:00 15,7 C 77 % 1006,5 hPa 0,0 l/m 0,0 km/h (0 Bft) SO 144 0 min 0,000 mm 0,0 UV-I 1 W/m 11,7 C 15,7 C 0,0 km/h (0 Bft) 0,00 %
13.10.2014 18:15 15,2 C 80 % 1006,6 hPa 0,0 l/m 0,0 km/h (0 Bft) O 97 0 min 0,000 mm 0,0 UV-I 0 W/m 11,8 C 15,2 C 0,0 km/h (0 Bft) 0,00 %
13.10.2014 18:30 14,9 C 81 % 1006,7 hPa 0,0 l/m 0,0 km/h (0 Bft) O-SO 120 0 min 0,000 mm 0,0 UV-I 0 W/m 11,7 C 14,9 C 0,0 km/h (0 Bft) 0,00 %
13.10.2014 18:45 14,8 C 81 % 1006,7 hPa 0,0 l/m 0,0 km/h (0 Bft) O-SO 107 0 min 0,000 mm 0,0 UV-I 0 W/m 11,6 C 14,8 C 0,0 km/h (0 Bft) 0,00 %
13.10.2014 19:00 14,7 C 81 % 1007,0 hPa 0,0 l/m 0,0 km/h (0 Bft) O-SO 102 0 min 0,000 mm 0,0 UV-I 0 W/m 11,5 C 14,7 C 0,0 km/h (0 Bft) 0,00 %
13.10.2014 19:15 14,5 C 82 % 1007,1 hPa 0,0 l/m 0,0 km/h (0 Bft) O-SO 104 0 min 0,000 mm 0,0 UV-I 0 W/m 11,5 C 14,5 C 0,0 km/h (0 Bft) 0,00 %
13.10.2014 19:30 14,4 C 83 % 1007,2 hPa 0,0 l/m 0,0 km/h (0 Bft) O-SO 104 0 min 0,000 mm 0,0 UV-I 0 W/m 11,5 C 14,4 C 0,0 km/h (0 Bft) 0,00 %
13.10.2014 19:45 14,3 C 84 % 1007,4 hPa 0,0 l/m 0,0 km/h (0 Bft) O-SO 104 0 min 0,000 mm 0,0 UV-I 0 W/m 11,6 C 14,3 C 0,0 km/h (0 Bft) 0,00 %
13.10.2014 20:00 14,3 C 84 % 1006,8 hPa 0,0 l/m 0,0 km/h (0 Bft) O-SO 104 0 min 0,000 mm 0,0 UV-I 0 W/m 11,6 C 14,3 C 0,0 km/h (0 Bft) 0,00 %
13.10.2014 20:15 14,3 C 84 % 1006,7 hPa 0,0 l/m 0,0 km/h (0 Bft) O-SO 111 0 min 0,000 mm 0,0 UV-I 0 W/m 11,6 C 14,3 C 0,0 km/h (0 Bft) 0,00 %
13.10.2014 20:30 14,3 C 84 % 1006,4 hPa 0,0 l/m 0,0 km/h (0 Bft) O-SO 112 0 min 0,000 mm 0,0 UV-I 0 W/m 11,6 C 14,3 C 0,0 km/h (0 Bft) 0,00 %
13.10.2014 20:45 14,3 C 84 % 1006,4 hPa 0,0 l/m 0,0 km/h (0 Bft) O-SO 116 0 min 0,000 mm 0,0 UV-I 0 W/m 11,6 C 14,3 C 0,0 km/h (0 Bft) 0,00 %
13.10.2014 21:00 14,3 C 84 % 1006,7 hPa 0,0 l/m 0,0 km/h (0 Bft) SO 134 0 min 0,000 mm 0,0 UV-I 0 W/m 11,6 C 14,3 C 0,0 km/h (0 Bft) 0,00 %
13.10.2014 21:15 14,4 C 83 % 1006,6 hPa 0,0 l/m 0,0 km/h (0 Bft) S 185 0 min 0,000 mm 0,0 UV-I 0 W/m 11,5 C 14,4 C 0,0 km/h (0 Bft) 0,00 %
13.10.2014 21:30 14,4 C 84 % 1006,7 hPa 0,0 l/m 0,0 km/h (0 Bft) S 180 0 min 0,000 mm 0,0 UV-I 0 W/m 11,7 C 14,4 C 0,0 km/h (0 Bft) 0,00 %
13.10.2014 21:45 14,4 C 84 % 1006,7 hPa 0,0 l/m 0,0 km/h (0 Bft) SO 144 0 min 0,000 mm 0,0 UV-I 0 W/m 11,7 C 14,4 C 0,0 km/h (0 Bft) 0,00 %
13.10.2014 22:00 14,4 C 84 % 1006,9 hPa 0,3 l/m 0,0 km/h (0 Bft) S 184 0 min 0,000 mm 0,0 UV-I 0 W/m 11,7 C 14,4 C 0,0 km/h (0 Bft) 0,00 %
13.10.2014 22:15 14,3 C 84 % 1006,9 hPa 0,3 l/m 0,0 km/h (0 Bft) S 183 0 min 0,000 mm 0,0 UV-I 0 W/m 11,6 C 14,3 C 0,0 km/h (0 Bft) 0,00 %
13.10.2014 22:30 14,3 C 85 % 1006,7 hPa 0,0 l/m 0,0 km/h (0 Bft) SW 220 0 min 0,000 mm 0,0 UV-I 0 W/m 11,8 C 14,3 C 0,0 km/h (0 Bft) 0,00 %
13.10.2014 22:45 14,1 C 85 % 1006,8 hPa 0,0 l/m 0,0 km/h (0 Bft) S 181 0 min 0,000 mm 0,0 UV-I 0 W/m 11,6 C 14,1 C 0,0 km/h (0 Bft) 0,00 %
13.10.2014 23:00 14,0 C 85 % 1006,9 hPa 0,3 l/m 0,0 km/h (0 Bft) O-SO 109 0 min 0,000 mm 0,0 UV-I 0 W/m 11,5 C 14,0 C 0,0 km/h (0 Bft) 0,00 %
13.10.2014 23:15 14,1 C 85 % 1006,9 hPa 0,6 l/m 1,8 km/h (1 Bft) SO 146 0 min 0,000 mm 0,0 UV-I 0 W/m 11,6 C 14,1 C 4,0 km/h (1 Bft) 0,00 %
13.10.2014 23:30 14,1 C 86 % 1006,7 hPa 0,6 l/m 0,0 km/h (0 Bft) S 189 0 min 0,000 mm 0,0 UV-I 0 W/m 11,8 C 14,1 C 0,0 km/h (0 Bft) 0,00 %
13.10.2014 23:45 14,1 C 86 % 1006,3 hPa 0,6 l/m 0,4 km/h (0 Bft) O-SO 112 0 min 0,000 mm 0,0 UV-I 0 W/m 11,8 C 14,1 C 4,0 km/h (1 Bft) 0,00 %
_ Min-Zeit 03:45 13:45 15:15 - 00:00 - - - - - - 03:45 03:45 00:00 00:00
Minimum _ 10,7 C 68 % 1005,2 hPa - 0,0 km/h (0 Bft) - - - - - - 8,5 C 10,7 C 0,0 km/h (0 Bft) 0,00 %
_ Max-Zeit 14:45 04:15 02:30 23:15 11:00 - - 12:30 00:00 12:15 12:30 16:30 14:45 11:00 00:00
Maximum _ 18,3 C 87 % 1009,0 hPa 0,6 l/m 11,5 km/h
O-SO (2 Bft)
- - 15 min 0,000 mm 3,0 UV-I 320 W/m 13,0 C 18,3 C 15,8 km/h
O-SO (3 Bft)
0,00 %
Durchschnitt _ 14,2 C 81 % 1007,5 hPa #3,0 l/m 0,5 km/h (0 Bft) O-SO - #15 min. #0,000 mm 1,7 UV-I 136 W/m 10,9 C 14,1 C 1,3 km/h (1 Bft) 0,00 %